Time;durP1;ratioP1;P1;durP2;ratioP2;P2;SDS_P1;SDS_P2;PMS_P1;PMS_P2;Temp;Humidity;BMP_temperature;BMP_pressure;BME280_temperature;BME280_humidity;BME280_pressure;Samples;Min_cycle;Max_cycle;Signal;HPM_P1;HPM_P2
2022/12/24 06:56:09;;;;;;;6.85;2.10;;;;;;;;;;10620945;27;20455;-81
2022/12/24 07:01:15;;;;;;;6.35;2.22;;;;;;;;;;10611846;28;20061;-81
2022/12/24 07:06:21;;;;;;;6.13;2.10;;;;;;;;;;10613330;28;20053;-81
2022/12/24 07:11:23;;;;;;;7.28;2.40;;;;;;;;;;10628522;28;20051;-81
2022/12/24 07:16:24;;;;;;;10.68;3.08;;;;;;;;;;10611438;28;20148;-81
2022/12/24 07:21:25;;;;;;;15.10;4.53;;;;;;;;;;10611842;28;20034;-82
2022/12/24 07:26:26;;;;;;;8.25;2.83;;;;;;;;;;10614058;28;20119;-82
2022/12/24 07:31:27;;;;;;;12.38;2.75;;;;;;;;;;10614008;28;20426;-81
2022/12/24 07:36:28;;;;;;;9.23;3.08;;;;;;;;;;10611444;28;20051;-82
2022/12/24 07:41:29;;;;;;;9.07;2.92;;;;;;;;;;10630308;28;20023;-81
2022/12/24 07:46:30;;;;;;;11.00;3.42;;;;;;;;;;10603834;28;20099;-81
2022/12/24 07:51:31;;;;;;;;;;;;;;;;;;10629829;28;20053;-81
2022/12/24 07:56:33;;;;;;;7.38;2.20;;;;;;;;;;10608002;28;19903;-81
2022/12/24 08:01:34;;;;;;;10.35;3.55;;;;;;;;;;10625275;28;20073;-81
2022/12/24 08:06:35;;;;;;;;;;;;;;;;;;10608081;28;20019;-80
2022/12/24 08:11:36;;;;;;;5.72;1.95;;;;;;;;;;10583712;28;19911;-79
2022/12/24 08:16:37;;;;;;;;;;;;;;;;;;10577816;28;20457;-79
2022/12/24 08:21:38;;;;;;;7.68;2.67;;;;;;;;;;10595675;28;19914;-80
2022/12/24 08:26:39;;;;;;;;;;;;;;;;;;10592890;28;20460;-79
2022/12/24 08:31:40;;;;;;;8.48;2.80;;;;;;;;;;10575672;28;19910;-79
2022/12/24 08:36:41;;;;;;;;;;;;;;;;;;10575518;28;20102;-79
2022/12/24 08:41:42;;;;;;;12.98;5.72;;;;;;;;;;10577476;28;19908;-83
2022/12/24 08:46:43;;;;;;;;;;;;;;;;;;10576383;28;20126;-78
2022/12/24 08:51:44;;;;;;;18.48;7.15;;;;;;;;;;10575210;28;19914;-80
2022/12/24 08:56:44;;;;;;;;;;;;;;;;;;10575800;28;20062;-79
2022/12/24 09:01:46;;;;;;;17.48;8.57;;;;;;;;;;10574438;28;19911;-79
2022/12/24 09:06:47;;;;;;;17.10;8.90;;;;;;;;;;10598096;28;20026;-79
2022/12/24 09:11:47;;;;;;;;;;;;;;;;;;10576053;28;20030;-80
2022/12/24 09:16:48;;;;;;;13.05;7.22;;;;;;;;;;10572806;28;20275;-79
2022/12/24 09:21:49;;;;;;;;;;;;;;;;;;10575436;28;20441;-81
2022/12/24 09:26:51;;;;;;;14.15;7.13;;;;;;;;;;10575449;28;19994;-79
2022/12/24 09:31:53;;;;;;;12.57;6.40;;;;;;;;;;10575133;28;20030;-80
2022/12/24 09:36:54;;;;;;;12.40;5.05;;;;;;;;;;10573421;28;20019;-81
2022/12/24 09:41:55;;;;;;;;;;;;;;;;;;10594370;28;20441;-80
2022/12/24 09:46:57;;;;;;;11.65;4.63;;;;;;;;;;10571844;28;19904;-79
2022/12/24 09:52:05;;;;;;;14.57;5.03;;;;;;;;;;10590680;28;20647;-80
2022/12/24 09:57:08;;;;;;;11.55;4.38;;;;;;;;;;10590455;28;20470;-78
2022/12/24 10:02:16;;;;;;;11.43;3.55;;;;;;;;;;10571711;28;20020;-80
2022/12/24 10:07:36;;;;;;;10.63;3.72;;;;;;;;;;10574808;28;20045;-79
2022/12/24 10:12:37;;;;;;;9.65;3.92;;;;;;;;;;10594065;28;20541;-79
2022/12/24 10:17:38;;;;;;;;;;;;;;;;;;10598242;28;20054;-79
2022/12/24 10:22:45;;;;;;;10.68;3.72;;;;;;;;;;10600123;28;19970;-78
2022/12/24 10:27:47;;;;;;;11.85;4.45;;;;;;;;;;10582419;28;20154;-78
2022/12/24 10:32:52;;;;;;;9.02;3.53;;;;;;;;;;10605056;28;20023;-79
2022/12/24 10:37:55;;;;;;;10.80;3.72;;;;;;;;;;10621120;28;20050;-78
2022/12/24 10:42:56;;;;;;;11.32;3.75;;;;;;;;;;10602471;28;20045;-77
2022/12/24 10:48:02;;;;;;;15.25;4.32;;;;;;;;;;10598513;28;20367;-80
2022/12/24 10:53:12;;;;;;;9.68;3.80;;;;;;;;;;10610117;28;20110;-79
2022/12/24 10:58:16;;;;;;;9.57;3.20;;;;;;;;;;10611101;28;20076;-81
2022/12/24 11:03:17;;;;;;;7.78;3.13;;;;;;;;;;10590768;28;20063;-79
2022/12/24 11:08:19;;;;;;;10.57;3.22;;;;;;;;;;10574668;28;20478;-79
2022/12/24 11:13:26;;;;;;;14.45;5.88;;;;;;;;;;10572409;28;20126;-81
2022/12/24 11:18:27;;;;;;;12.40;4.00;;;;;;;;;;10572541;28;20400;-80
2022/12/24 11:23:29;;;;;;;15.68;5.10;;;;;;;;;;10572995;28;20029;-79
2022/12/24 11:28:32;;;;;;;11.20;3.20;;;;;;;;;;10573577;28;20076;-79
2022/12/24 11:33:45;;;;;;;12.73;3.72;;;;;;;;;;10571926;28;20055;-81
2022/12/24 11:38:52;;;;;;;13.55;4.63;;;;;;;;;;10591284;28;20020;-79
2022/12/24 11:44:07;;;;;;;10.15;3.67;;;;;;;;;;10597038;28;20020;-79
2022/12/24 11:49:11;;;;;;;15.35;4.85;;;;;;;;;;10597507;28;20027;-80
2022/12/24 11:54:19;;;;;;;9.18;3.38;;;;;;;;;;10600287;28;20117;-81
2022/12/24 11:59:52;;;;;;;13.02;4.60;;;;;;;;;;10603029;28;20427;-81
2022/12/24 12:04:59;;;;;;;15.10;4.53;;;;;;;;;;10532015;28;20126;-83
2022/12/24 12:10:11;;;;;;;15.63;4.38;;;;;;;;;;10594198;28;20015;-81
2022/12/24 12:15:13;;;;;;;14.65;4.70;;;;;;;;;;10605351;28;20027;-80
2022/12/24 12:20:17;;;;;;;10.70;3.95;;;;;;;;;;10603607;28;20031;-81
2022/12/24 12:25:34;;;;;;;11.98;4.47;;;;;;;;;;10604988;28;20028;-81
2022/12/24 12:30:35;;;;;;;11.75;3.75;;;;;;;;;;10588344;28;20062;-82
2022/12/24 12:35:38;;;;;;;12.95;4.40;;;;;;;;;;10578827;28;20027;-81
2022/12/24 12:40:42;;;;;;;11.43;4.45;;;;;;;;;;10577456;28;20091;-81
2022/12/24 12:45:50;;;;;;;16.50;4.63;;;;;;;;;;10577478;28;20095;-81
2022/12/24 12:50:57;;;;;;;10.10;3.60;;;;;;;;;;10576167;28;20023;-81
2022/12/24 12:56:10;;;;;;;10.18;3.20;;;;;;;;;;10595166;28;20036;-81
2022/12/24 13:01:11;;;;;;;9.30;3.35;;;;;;;;;;10577202;28;20027;-81
2022/12/24 13:06:21;;;;;;;12.63;4.47;;;;;;;;;;10576449;28;20024;-81
2022/12/24 13:11:22;;;;;;;15.45;5.18;;;;;;;;;;10574740;28;20365;-80
2022/12/24 13:16:23;;;;;;;;;;;;;;;;;;10592876;28;20103;-81
2022/12/24 13:21:25;;;;;;;8.40;3.30;;;;;;;;;;10576808;28;19904;-81
2022/12/24 13:26:26;;;;;;;8.63;3.20;;;;;;;;;;10575453;28;20047;-80
2022/12/24 13:31:28;;;;;;;;;;;;;;;;;;10598767;28;20464;-79
2022/12/24 13:36:59;;;;;;;10.35;3.17;;;;;;;;;;10570501;28;19913;-81
2022/12/24 13:42:00;;;;;;;15.93;5.00;;;;;;;;;;10569563;28;20394;-80
2022/12/24 13:47:03;;;;;;;;;;;;;;;;;;10588660;28;20099;-80
2022/12/24 13:52:17;;;;;;;17.80;5.50;;;;;;;;;;10570074;28;19915;-80
2022/12/24 13:57:36;;;;;;;9.75;3.47;;;;;;;;;;10568669;28;20027;-80
2022/12/24 14:02:56;;;;;;;12.38;3.97;;;;;;;;;;10569717;28;20023;-81
2022/12/24 14:07:58;;;;;;;10.80;3.85;;;;;;;;;;10568935;28;20031;-80
2022/12/24 14:12:59;;;;;;;9.13;3.20;;;;;;;;;;10568430;28;20019;-80
2022/12/24 14:18:00;;;;;;;11.65;3.88;;;;;;;;;;10586614;28;20044;-81
2022/12/24 14:23:03;;;;;;;9.73;3.60;;;;;;;;;;10586019;28;20115;-80
2022/12/24 14:28:06;;;;;;;9.60;3.35;;;;;;;;;;10587038;28;20027;-81
2022/12/24 14:33:28;;;;;;;9.55;3.55;;;;;;;;;;10568938;28;20032;-81
2022/12/24 14:38:29;;;;;;;10.38;3.13;;;;;;;;;;10568596;28;20026;-81
2022/12/24 14:43:39;;;;;;;11.60;4.18;;;;;;;;;;10578811;28;20027;-80
2022/12/24 14:48:45;;;;;;;6.90;2.90;;;;;;;;;;10593378;28;20162;-81
2022/12/24 14:53:52;;;;;;;9.10;3.00;;;;;;;;;;10570006;28;20050;-82
2022/12/24 14:58:53;;;;;;;10.68;3.55;;;;;;;;;;10569180;28;20363;-82
2022/12/24 15:04:05;;;;;;;9.10;3.38;;;;;;;;;;10568413;28;20030;-81
2022/12/24 15:09:11;;;;;;;10.77;3.10;;;;;;;;;;10568251;28;20130;-81
2022/12/24 15:14:13;;;;;;;8.30;3.58;;;;;;;;;;10570507;28;20027;-81
2022/12/24 15:19:17;;;;;;;7.07;3.00;;;;;;;;;;10576636;28;20019;-80
2022/12/24 15:24:25;;;;;;;6.90;3.05;;;;;;;;;;10576020;28;20054;-80
2022/12/24 15:29:28;;;;;;;5.53;2.90;;;;;;;;;;10594633;28;20091;-81
2022/12/24 15:34:34;;;;;;;7.85;3.13;;;;;;;;;;10576164;28;20504;-81
2022/12/24 15:39:36;;;;;;;10.95;4.63;;;;;;;;;;10576945;28;20030;-81
2022/12/24 15:44:38;;;;;;;7.15;3.30;;;;;;;;;;10577087;28;20086;-81
2022/12/24 15:49:39;;;;;;;6.85;2.60;;;;;;;;;;10575448;28;20028;-80
2022/12/24 15:54:48;;;;;;;6.07;2.65;;;;;;;;;;10577164;28;20058;-80
2022/12/24 15:59:53;;;;;;;5.20;2.58;;;;;;;;;;10589087;28;20398;-79
2022/12/24 16:04:56;;;;;;;6.82;2.35;;;;;;;;;;10578229;28;20024;-80
2022/12/24 16:10:13;;;;;;;7.53;3.00;;;;;;;;;;10574671;28;20147;-81
2022/12/24 16:15:14;;;;;;;6.47;2.65;;;;;;;;;;10574613;28;20072;-80
2022/12/24 16:20:18;;;;;;;4.95;2.50;;;;;;;;;;10583301;28;20061;-79
2022/12/24 16:25:26;;;;;;;5.22;2.20;;;;;;;;;;10585055;28;20126;-79
2022/12/24 16:30:27;;;;;;;9.23;3.58;;;;;;;;;;10587571;28;20033;-79
2022/12/24 16:35:35;;;;;;;5.75;2.95;;;;;;;;;;10580074;28;20081;-82
2022/12/24 16:40:36;;;;;;;6.78;3.28;;;;;;;;;;10580717;28;20051;-81
2022/12/24 16:45:37;;;;;;;6.95;3.15;;;;;;;;;;10598105;28;20023;-81
2022/12/24 16:50:38;;;;;;;6.88;3.17;;;;;;;;;;10578827;28;20370;-80
2022/12/24 16:55:39;;;;;;;5.32;2.60;;;;;;;;;;10597430;28;20091;-81
2022/12/24 17:00:40;;;;;;;6.70;3.40;;;;;;;;;;10597662;28;20449;-81
2022/12/24 17:05:42;;;;;;;5.82;3.08;;;;;;;;;;10579796;28;20073;-81
2022/12/24 17:10:49;;;;;;;6.20;2.95;;;;;;;;;;10585287;28;20038;-80
2022/12/24 17:15:50;;;;;;;6.07;3.42;;;;;;;;;;10575163;28;20024;-81
2022/12/24 17:21:01;;;;;;;7.40;3.00;;;;;;;;;;10575982;28;20119;-81
2022/12/24 17:26:02;;;;;;;10.73;4.38;;;;;;;;;;10576551;28;20390;-81
2022/12/24 17:31:07;;;;;;;6.13;3.30;;;;;;;;;;10577300;28;20091;-81
2022/12/24 17:36:08;;;;;;;10.48;4.47;;;;;;;;;;10575176;28;20058;-81
2022/12/24 17:41:13;;;;;;;6.88;3.72;;;;;;;;;;10595815;28;20465;-81
2022/12/24 17:46:16;;;;;;;5.63;3.47;;;;;;;;;;10577624;28;20020;-80
2022/12/24 17:51:19;;;;;;;6.30;3.42;;;;;;;;;;10574014;28;20034;-81
2022/12/24 17:56:20;;;;;;;6.75;3.80;;;;;;;;;;10594284;28;20072;-81
2022/12/24 18:01:22;;;;;;;6.53;3.60;;;;;;;;;;10594994;28;20020;-81
2022/12/24 18:06:24;;;;;;;6.97;4.28;;;;;;;;;;10577335;28;20027;-80
2022/12/24 18:11:27;;;;;;;8.60;4.50;;;;;;;;;;10574397;28;20041;-81
2022/12/24 18:16:29;;;;;;;8.48;4.22;;;;;;;;;;10576671;28;20028;-80
2022/12/24 18:21:31;;;;;;;7.93;4.28;;;;;;;;;;10599425;28;20015;-80
2022/12/24 18:26:32;;;;;;;7.20;4.80;;;;;;;;;;10600565;28;20027;-80
2022/12/24 18:31:33;;;;;;;8.65;5.40;;;;;;;;;;10621887;28;20035;-81
2022/12/24 18:36:35;;;;;;;10.60;6.40;;;;;;;;;;10601124;28;20031;-80
2022/12/24 18:41:36;;;;;;;10.70;6.57;;;;;;;;;;10581723;28;20031;-81
2022/12/24 18:46:37;;;;;;;8.40;5.18;;;;;;;;;;10573699;28;20026;-80
2022/12/24 18:51:38;;;;;;;10.43;5.57;;;;;;;;;;10572824;28;20032;-80
2022/12/24 18:56:39;;;;;;;8.65;5.22;;;;;;;;;;10571370;28;20470;-80
2022/12/24 19:01:40;;;;;;;11.27;6.70;;;;;;;;;;10573706;28;20087;-80
2022/12/24 19:06:41;;;;;;;10.40;6.43;;;;;;;;;;10580274;28;20080;-83
2022/12/24 19:11:42;;;;;;;9.43;5.70;;;;;;;;;;10578946;28;20024;-82
2022/12/24 19:16:43;;;;;;;10.40;6.20;;;;;;;;;;10578326;28;20027;-82
2022/12/24 19:21:44;;;;;;;10.38;6.07;;;;;;;;;;10607866;28;20366;-80
2022/12/24 19:26:47;;;;;;;11.00;8.13;;;;;;;;;;10602031;28;20019;-81
2022/12/24 19:31:48;;;;;;;12.73;7.22;;;;;;;;;;10595357;28;20019;-81
2022/12/24 19:36:49;;;;;;;8.07;5.45;;;;;;;;;;10576955;28;20085;-81
2022/12/24 19:41:50;;;;;;;9.45;6.40;;;;;;;;;;10594677;28;20047;-81
2022/12/24 19:46:51;;;;;;;11.32;6.90;;;;;;;;;;10580499;28;20047;-81
2022/12/24 19:51:53;;;;;;;9.45;6.72;;;;;;;;;;10574758;28;20124;-80
2022/12/24 19:56:54;;;;;;;9.85;6.57;;;;;;;;;;10560999;28;20034;-81
2022/12/24 20:01:55;;;;;;;9.30;6.30;;;;;;;;;;10576933;28;20066;-81
2022/12/24 20:06:56;;;;;;;12.18;7.47;;;;;;;;;;10581056;28;20028;-80
2022/12/24 20:11:57;;;;;;;14.13;9.55;;;;;;;;;;10579771;28;20072;-81
2022/12/24 20:16:58;;;;;;;10.18;7.50;;;;;;;;;;10581496;28;20045;-83
